Time;durP1;ratioP1;P1;durP2;ratioP2;P2;SDS_P1;SDS_P2;PMS_P1;PMS_P2;Temp;Humidity;BMP_temperature;BMP_pressure;BME280_temperature;BME280_humidity;BME280_pressure;Samples;Min_cycle;Max_cycle;Signal;HPM_P1;HPM_P2
2021/03/02 00:01:42;;;;;;;23.98;11.82;;;6.40;65.60;;;5.30;60.43;99716.50;5101034;28;20402;-83
2021/03/02 00:04:09;;;;;;;24.58;12.00;;;6.40;65.50;;;5.25;60.64;99713.53;5105100;28;20693;-83
2021/03/02 00:06:35;;;;;;;28.83;13.43;;;6.40;65.70;;;5.21;60.42;99710.41;5104677;28;20424;-84
2021/03/02 00:09:03;;;;;;;25.40;11.85;;;6.40;65.80;;;5.31;60.46;99715.53;5104544;28;20425;-83
2021/03/02 00:11:30;;;;;;;25.48;11.88;;;6.40;65.70;;;5.22;60.70;99711.22;5105155;28;20742;-84
2021/03/02 00:13:57;;;;;;;22.57;11.47;;;6.40;65.60;;;5.23;60.65;99710.25;5104330;28;20526;-83
2021/03/02 00:16:25;;;;;;;28.77;11.65;;;6.40;65.80;;;5.18;60.76;99718.63;5106302;28;20406;-83
2021/03/02 00:18:56;;;;;;;22.23;11.50;;;6.40;65.90;;;5.17;61.03;99711.72;5115195;28;20495;-83
2021/03/02 00:21:31;;;;;;;21.05;11.63;;;6.30;66.20;;;5.22;60.78;99712.06;5109642;28;20416;-84
2021/03/02 00:24:03;;;;;;;25.42;11.75;;;6.30;65.90;;;5.10;61.30;99717.75;5106681;28;20416;-84
2021/03/02 00:26:33;;;;;;;19.63;11.90;;;6.30;66.20;;;5.09;61.15;99727.44;5107945;28;20414;-82
2021/03/02 00:29:04;;;;;;;24.35;11.52;;;6.30;66.30;;;5.01;61.31;99720.34;5108517;28;20414;-83
2021/03/02 00:31:32;;;;;;;22.33;11.70;;;6.20;66.40;;;4.84;61.80;99713.38;5106682;28;20445;-82
2021/03/02 00:33:58;;;;;;;21.85;11.30;;;6.10;66.90;;;4.84;61.96;99720.44;5105681;28;20453;-83
2021/03/02 00:36:24;;;;;;;22.90;11.43;;;6.00;67.10;;;4.76;62.08;99710.72;5103982;28;20406;-83
2021/03/02 00:38:50;;;;;;;21.60;12.20;;;6.00;67.30;;;4.74;62.19;99717.09;5104879;28;20811;-84
2021/03/02 00:41:18;;;;;;;23.27;11.13;;;5.90;67.50;;;4.71;62.67;99720.03;5104909;28;20405;-83
2021/03/02 00:43:44;;;;;;;23.15;11.45;;;5.90;67.80;;;4.78;62.55;99721.88;5105478;28;20443;-84
2021/03/02 00:46:10;;;;;;;19.33;10.63;;;5.90;67.80;;;4.95;61.85;99725.41;5106851;28;20497;-84
2021/03/02 00:48:36;;;;;;;20.20;10.23;;;6.10;67.50;;;5.06;61.65;99719.88;5116468;28;20401;-83
2021/03/02 00:51:03;;;;;;;17.10;9.70;;;6.10;67.10;;;5.00;61.74;99720.50;5114315;28;20413;-83
2021/03/02 00:53:29;;;;;;;16.70;10.07;;;6.20;67.00;;;4.90;62.11;99714.53;5085991;28;20699;-82
2021/03/02 00:55:56;;;;;;;18.42;10.27;;;6.10;67.40;;;4.87;62.20;99717.50;5103002;28;20402;-82
2021/03/02 00:58:23;;;;;;;18.75;10.30;;;6.10;67.50;;;4.91;62.20;99722.28;5102051;28;20409;-82
2021/03/02 01:00:49;;;;;;;17.40;9.77;;;6.10;67.40;;;5.05;61.34;99720.84;5103237;28;20410;-82
2021/03/02 01:03:15;;;;;;;19.83;10.30;;;6.20;67.00;;;4.74;62.53;99717.91;5103161;28;20495;-82
2021/03/02 01:05:41;;;;;;;18.90;10.05;;;6.00;67.30;;;4.64;62.89;99722.47;5102737;28;20438;-82
2021/03/02 01:08:08;;;;;;;17.02;10.48;;;5.90;67.90;;;4.66;62.68;99723.16;5102644;28;20428;-82
2021/03/02 01:10:34;;;;;;;20.40;11.40;;;5.80;68.20;;;4.68;62.59;99722.00;5085118;28;20418;-84
2021/03/02 01:13:00;;;;;;;22.27;11.00;;;5.90;68.00;;;4.76;62.43;99717.75;5103125;28;20402;-81
2021/03/02 01:15:27;;;;;;;19.33;10.70;;;5.90;67.80;;;4.59;62.89;99715.06;5103065;28;20401;-83
2021/03/02 01:17:54;;;;;;;23.63;11.02;;;5.80;67.90;;;4.59;63.18;99719.47;5101020;28;20395;-83
2021/03/02 01:20:20;;;;;;;19.50;10.68;;;5.80;68.30;;;4.47;63.52;99711.06;5100584;28;20426;-83
2021/03/02 01:22:46;;;;;;;18.55;10.73;;;5.70;68.60;;;4.44;63.67;99718.41;5083017;28;20480;-84
2021/03/02 01:25:13;;;;;;;21.38;11.55;;;5.60;68.90;;;4.41;63.70;99716.09;5100565;28;20653;-83
2021/03/02 01:27:40;;;;;;;21.42;11.10;;;5.60;69.10;;;4.41;63.68;99716.09;5101555;28;20518;-83
2021/03/02 01:30:10;;;;;;;22.52;11.23;;;5.60;69.10;;;4.43;63.90;99716.78;5101384;28;20432;-83
2021/03/02 01:32:38;;;;;;;19.55;11.30;;;5.60;69.20;;;4.34;64.01;99712.47;5084550;28;20410;-83
2021/03/02 01:35:07;;;;;;;24.17;12.05;;;5.60;69.30;;;4.17;64.59;99709.72;5102812;28;20417;-81
2021/03/02 01:37:33;;;;;;;18.55;10.85;;;5.40;69.90;;;4.20;64.88;99714.66;5102104;28;20429;-83
2021/03/02 01:40:02;;;;;;;18.48;11.30;;;5.40;70.30;;;4.38;64.15;99713.78;5101740;28;20433;-84
2021/03/02 01:42:28;;;;;;;20.02;11.15;;;5.50;70.00;;;4.38;63.85;99713.78;5102498;28;20805;-83
2021/03/02 01:44:54;;;;;;;19.57;11.13;;;5.60;69.70;;;4.40;63.93;99709.22;5102468;28;20422;-84
2021/03/02 01:47:21;;;;;;;20.52;10.88;;;5.60;69.60;;;4.49;63.70;99710.91;5101930;28;20421;-83
2021/03/02 01:49:48;;;;;;;25.63;12.35;;;5.60;69.40;;;4.44;63.91;99719.22;5102533;28;20422;-84
2021/03/02 01:52:14;;;;;;;21.08;10.70;;;5.70;69.30;;;4.40;63.96;99714.47;5102098;28;20500;-83
2021/03/02 01:54:41;;;;;;;20.10;11.55;;;5.60;69.40;;;4.26;64.45;99715.84;5102525;28;20464;-82
2021/03/02 01:57:08;;;;;;;21.60;11.40;;;5.50;69.80;;;4.12;64.93;99722.47;5103706;28;20398;-82
2021/03/02 01:59:34;;;;;;;19.60;11.05;;;5.40;70.20;;;4.15;65.07;99716.06;5104030;28;20433;-83
2021/03/02 02:02:02;;;;;;;18.65;11.10;;;5.40;70.60;;;4.11;65.06;99718.19;5102923;28;20493;-83
2021/03/02 02:04:39;;;;;;;22.67;11.75;;;5.30;70.60;;;4.15;65.02;99716.91;5102684;28;20439;-84
2021/03/02 02:07:13;;;;;;;25.10;12.13;;;5.40;70.60;;;4.07;65.22;99716.00;5102225;28;20472;-83
2021/03/02 02:09:53;;;;;;;22.17;11.88;;;5.30;70.80;;;4.06;65.19;99720.44;5102663;28;20409;-83
2021/03/02 02:12:26;;;;;;;19.17;11.50;;;5.30;70.80;;;4.02;65.25;99710.41;5103776;28;20406;-84
2021/03/02 02:14:59;;;;;;;20.20;11.60;;;5.30;70.80;;;4.11;65.16;99720.00;5103433;28;20433;-84
2021/03/02 02:17:37;;;;;;;20.98;11.75;;;5.30;70.90;;;4.11;64.96;99714.75;5103552;28;20402;-84
2021/03/02 02:20:06;;;;;;;26.27;12.00;;;5.30;70.60;;;4.16;64.63;99713.31;5104131;28;20478;-83
2021/03/02 02:23:05;;;;;;;20.88;10.88;;;5.40;70.20;;;4.33;63.99;99718.66;5108568;28;20435;-83
2021/03/02 02:25:54;;;;;;;22.98;10.90;;;5.50;69.70;;;4.21;64.32;99708.41;5115267;28;20402;-83
2021/03/02 02:28:24;;;;;;;18.70;10.53;;;5.50;69.40;;;4.04;64.76;99709.31;5109039;28;20657;-84
2021/03/02 02:30:56;;;;;;;17.38;10.52;;;5.30;70.20;;;3.89;65.75;99702.97;5103610;28;20826;-84
2021/03/02 02:33:25;;;;;;;18.80;10.15;;;5.10;71.00;;;3.86;66.05;99704.06;5107454;28;20400;-81
2021/03/02 02:35:53;;;;;;;20.05;11.20;;;5.10;72.50;;;3.81;66.27;99708.13;5110526;28;20413;-84
2021/03/02 02:38:22;;;;;;;18.02;10.07;;;5.00;71.90;;;3.90;66.05;99709.84;5107193;28;20409;-82
2021/03/02 02:40:49;;;;;;;20.55;11.00;;;5.10;71.90;;;3.97;65.87;99705.66;5107312;28;20401;-82
2021/03/02 02:43:17;;;;;;;18.42;10.60;;;5.10;71.60;;;3.83;66.17;99708.81;5107735;28;20410;-82
2021/03/02 02:45:46;;;;;;;20.67;10.75;;;5.10;71.70;;;3.74;66.45;99702.66;5090023;28;20410;-83
2021/03/02 02:48:14;;;;;;;19.48;10.63;;;5.00;71.90;;;3.76;66.59;99703.31;5107885;28;20512;-83
2021/03/02 02:50:42;;;;;;;21.90;10.82;;;4.90;72.30;;;3.76;66.48;99716.41;5108711;28;20469;-84
2021/03/02 02:53:09;;;;;;;16.98;9.82;;;5.00;72.20;;;3.79;66.60;99712.69;5108403;28;20435;-82
2021/03/02 02:55:43;;;;;;;19.30;10.93;;;5.00;72.30;;;3.75;66.43;99714.81;5109888;28;20401;-83
2021/03/02 02:58:12;;;;;;;16.75;10.27;;;5.00;72.20;;;3.64;66.76;99722.03;5112974;28;20413;-83
2021/03/02 03:08:09;;;;;;;19.73;11.25;;;4.80;72.70;;;3.50;67.24;99705.88;5109779;28;20428;-81
2021/03/02 03:10:37;;;;;;;19.67;11.18;;;4.80;73.00;;;3.45;67.41;99707.31;5066765;28;20412;-82
2021/03/02 03:13:08;;;;;;;20.13;10.98;;;4.70;73.10;;;3.45;67.66;99710.75;5065703;28;20417;-82
2021/03/02 03:15:37;;;;;;;21.33;11.85;;;4.70;73.40;;;3.40;67.86;99710.34;5067074;28;20405;-82
2021/03/02 03:18:08;;;;;;;24.50;11.63;;;4.70;73.50;;;3.46;67.51;99712.38;5067455;28;20755;-82
2021/03/02 03:20:35;;;;;;;17.83;10.88;;;4.70;73.40;;;3.60;67.20;99705.00;5068521;28;20405;-83
2021/03/02 03:23:04;;;;;;;19.30;10.75;;;4.80;73.30;;;3.52;67.41;99710.97;5068472;28;20456;-83
2021/03/02 03:25:32;;;;;;;16.63;10.70;;;4.80;73.00;;;3.49;67.52;99708.66;5068335;28;20401;-82
2021/03/02 03:28:04;;;;;;;23.00;11.32;;;4.70;73.10;;;3.49;67.42;99714.72;5068121;28;20428;-83
2021/03/02 03:30:34;;;;;;;20.70;11.07;;;4.80;73.20;;;3.40;67.75;99709.53;5069114;28;20577;-81
2021/03/02 03:33:05;;;;;;;17.15;10.23;;;4.70;73.40;;;3.33;67.95;99711.09;5070067;28;20410;-83
2021/03/02 03:35:33;;;;;;;20.63;11.75;;;4.60;73.60;;;3.29;68.22;99718.44;5068646;28;20406;-83
2021/03/02 03:37:59;;;;;;;19.50;12.05;;;4.60;74.00;;;3.33;68.07;99711.09;5051312;28;20500;-83
2021/03/02 03:40:29;;;;;;;17.38;10.50;;;4.50;74.00;;;3.32;67.96;99720.75;5065781;28;20508;-82
2021/03/02 03:42:56;;;;;;;17.92;11.27;;;4.60;73.80;;;3.38;67.64;99716.72;5060686;28;20416;-82
2021/03/02 03:45:22;;;;;;;16.93;10.43;;;4.60;73.80;;;3.37;67.69;99723.75;5045951;28;20428;-83
2021/03/02 03:47:48;;;;;;;21.60;10.87;;;4.60;73.70;;;3.46;67.65;99722.03;5065129;28;20413;-82
2021/03/02 03:50:15;;;;;;;23.57;11.03;;;4.60;73.70;;;3.35;67.83;99724.88;5066308;28;20424;-82
2021/03/02 03:52:46;;;;;;;21.60;11.60;;;4.60;73.60;;;3.35;68.00;99732.72;5065311;28;20397;-83
2021/03/02 03:55:16;;;;;;;21.65;11.50;;;4.60;73.90;;;3.41;67.51;99730.31;5069936;28;20512;-83
2021/03/02 03:57:45;;;;;;;19.48;11.18;;;4.60;73.80;;;3.42;67.30;99728.53;5067235;28;20401;-82
2021/03/02 04:00:14;;;;;;;21.70;10.90;;;4.70;73.30;;;3.35;67.76;99724.88;5064990;28;20405;-82
2021/03/02 04:02:40;;;;;;;20.15;10.63;;;4.60;73.40;;;3.28;67.96;99726.44;5063121;28;20409;-83
2021/03/02 04:05:09;;;;;;;19.13;10.13;;;4.50;73.70;;;3.37;67.31;99730.78;5063768;28;20401;-83
2021/03/02 04:07:36;;;;;;;20.83;10.88;;;4.60;73.40;;;3.44;66.96;99731.84;5063558;28;20426;-82
2021/03/02 04:10:05;;;;;;;18.87;10.77;;;4.60;73.10;;;3.37;67.11;99726.38;5062406;28;20429;-81
2021/03/02 04:12:37;;;;;;;25.38;11.57;;;4.70;72.80;;;3.23;67.61;99726.06;5063116;28;20865;-82
2021/03/02 04:15:11;;;;;;;23.57;11.33;;;4.50;73.30;;;3.09;68.18;99735.19;5074821;28;20390;-83
2021/03/02 04:17:38;;;;;;;19.35;10.20;;;4.40;73.90;;;3.06;68.56;99738.94;5076379;28;20400;-82
2021/03/02 04:20:07;;;;;;;21.17;11.57;;;4.30;74.20;;;2.99;68.52;99737.06;5074353;28;20574;-82
2021/03/02 04:22:36;;;;;;;18.58;10.75;;;4.30;74.60;;;3.02;68.67;99741.97;5049958;28;20428;-83
2021/03/02 04:25:03;;;;;;;21.02;10.98;;;4.30;74.70;;;3.09;68.38;99748.28;5065590;28;20412;-83
2021/03/02 04:27:29;;;;;;;18.95;11.60;;;4.30;74.40;;;3.10;68.53;99740.28;5065367;28;20432;-83
2021/03/02 04:29:56;;;;;;;25.48;13.07;;;4.30;74.40;;;3.03;68.77;99738.41;5064905;28;20412;-82
2021/03/02 04:32:23;;;;;;;24.85;11.75;;;4.30;74.40;;;3.00;68.81;99746.56;5063963;28;20504;-83
2021/03/02 04:34:50;;;;;;;20.33;11.48;;;4.30;74.80;;;2.93;69.18;99750.72;5046809;28;20405;-82
2021/03/02 04:37:16;;;;;;;19.03;11.57;;;4.20;75.00;;;2.78;69.63;99744.31;5064273;28;20419;-81
2021/03/02 04:39:43;;;;;;;21.50;12.33;;;4.10;75.40;;;2.76;69.97;99748.84;5063407;28;20425;-82
2021/03/02 04:42:09;;;;;;;22.80;11.73;;;4.00;75.80;;;2.76;69.96;99751.47;5063481;28;20551;-82
2021/03/02 04:44:35;;;;;;;19.17;10.77;;;4.00;76.00;;;2.82;69.86;99751.72;5063168;28;20489;-82
2021/03/02 04:47:02;;;;;;;24.13;11.57;;;4.00;75.80;;;2.80;69.47;99750.19;5058834;28;20436;-82
2021/03/02 04:49:29;;;;;;;19.35;10.40;;;4.10;75.50;;;2.79;69.62;99754.59;5058382;28;20420;-83
2021/03/02 04:51:55;;;;;;;24.70;12.93;;;4.00;75.80;;;2.87;69.66;99759.13;5059844;28;20823;-83
2021/03/02 04:54:21;;;;;;;18.67;11.10;;;4.10;75.80;;;2.95;69.07;99757.44;5063808;28;20835;-82
2021/03/02 04:56:48;;;;;;;19.65;11.65;;;4.20;75.30;;;2.98;68.89;99754.53;5062611;28;20451;-82
2021/03/02 04:59:14;;;;;;;22.38;11.55;;;4.20;74.90;;;2.92;68.81;99749.91;5062814;28;20413;-82
2021/03/02 05:01:40;;;;;;;22.48;11.40;;;4.20;74.80;;;2.86;69.33;99747.81;5062846;28;20405;-82
2021/03/02 05:04:06;;;;;;;21.15;11.45;;;4.10;75.40;;;2.94;69.13;99752.34;5063055;28;20413;-82
2021/03/02 05:06:33;;;;;;;23.50;11.48;;;4.20;75.30;;;2.83;69.44;99750.75;5045280;28;20495;-82
2021/03/02 05:09:00;;;;;;;21.35;10.55;;;4.10;75.30;;;2.69;70.04;99754.66;5062467;28;20449;-80
2021/03/02 05:11:26;;;;;;;22.00;11.80;;;4.00;75.80;;;2.61;70.24;99746.69;5061363;28;20448;-81
2021/03/02 05:13:52;;;;;;;20.38;11.38;;;3.90;76.30;;;2.59;70.64;99747.78;5060594;28;20822;-80
2021/03/02 05:16:18;;;;;;;25.43;12.30;;;3.80;76.80;;;2.66;70.68;99752.31;5058045;28;20444;-80
2021/03/02 05:18:45;;;;;;;19.30;10.70;;;3.90;76.80;;;2.66;70.41;99746.25;5058540;28;20413;-82
2021/03/02 05:21:11;;;;;;;20.60;11.57;;;3.90;76.60;;;2.78;70.13;99746.91;5059347;28;20495;-83
2021/03/02 05:23:38;;;;;;;24.77;11.77;;;4.00;76.50;;;2.90;69.57;99743.97;5058787;28;20512;-81
2021/03/02 05:26:05;;;;;;;19.70;10.75;;;4.10;75.90;;;2.99;69.27;99750.13;5058746;28;20397;-81
2021/03/02 05:28:31;;;;;;;18.75;11.10;;;4.20;75.50;;;3.07;68.96;99745.00;5058642;28;20421;-82
2021/03/02 05:30:57;;;;;;;22.52;11.73;;;4.30;75.00;;;2.86;69.22;99745.22;5059798;28;20416;-82
2021/03/02 05:33:24;;;;;;;27.88;11.63;;;4.20;75.10;;;2.81;69.48;99744.84;5058813;28;20521;-81
2021/03/02 05:35:50;;;;;;;19.00;11.07;;;4.10;75.70;;;2.69;69.86;99753.84;5041764;28;20471;-82
2021/03/02 05:38:17;;;;;;;22.77;11.55;;;4.00;75.80;;;2.65;70.21;99744.59;5060451;28;20409;-80
2021/03/02 05:40:44;;;;;;;23.20;11.55;;;3.90;76.30;;;2.51;70.58;99745.88;5061070;28;20512;-81
2021/03/02 05:43:11;;;;;;;22.63;11.00;;;3.80;76.60;;;2.45;71.37;99746.47;5061921;28;20451;-81
2021/03/02 05:45:38;;;;;;;22.13;11.80;;;3.70;77.20;;;2.52;70.98;99749.34;5060751;28;20405;-80
2021/03/02 05:48:09;;;;;;;21.33;12.00;;;3.70;77.30;;;2.53;71.01;99748.38;5041774;28;20558;-81
2021/03/02 05:50:35;;;;;;;19.58;11.75;;;3.80;77.10;;;2.59;70.83;99742.56;5059779;28;20413;-79
2021/03/02 05:53:02;;;;;;;23.10;12.23;;;3.80;77.00;;;2.68;70.45;99750.38;5060027;28;20428;-81
2021/03/02 05:55:29;;;;;;;20.08;12.15;;;3.90;76.80;;;2.72;69.69;99746.50;5060372;28;20700;-80
2021/03/02 05:57:57;;;;;;;25.30;12.25;;;4.00;76.10;;;2.62;70.05;99745.75;5059551;28;20637;-81
2021/03/02 06:00:23;;;;;;;28.70;12.45;;;3.90;76.10;;;2.62;70.39;99744.91;5060920;28;20405;-82
2021/03/02 06:02:50;;;;;;;27.92;12.48;;;3.80;76.50;;;2.80;69.88;99748.41;5061386;28;20791;-83
2021/03/02 06:05:19;;;;;;;22.45;11.68;;;4.00;76.50;;;2.92;69.50;99756.91;5062909;28;20484;-80
2021/03/02 06:07:46;;;;;;;31.33;12.75;;;4.10;75.80;;;2.99;68.96;99753.56;5061654;28;20482;-81
2021/03/02 06:10:15;;;;;;;25.50;11.52;;;4.20;75.10;;;3.02;68.52;99750.66;5062478;28;20415;-79
2021/03/02 06:12:52;;;;;;;27.90;11.90;;;4.20;74.80;;;3.06;68.75;99759.06;5065409;28;20401;-81
2021/03/02 06:15:20;;;;;;;30.92;13.15;;;4.30;74.70;;;3.14;68.00;99763.56;5066739;28;20779;-82
2021/03/02 06:17:47;;;;;;;22.55;11.82;;;4.30;74.40;;;3.17;68.18;99761.47;5064101;28;20466;-82
2021/03/02 06:20:22;;;;;;;28.58;12.38;;;4.40;74.30;;;3.37;67.24;99757.78;5061426;28;20613;-83
2021/03/02 06:22:48;;;;;;;19.83;11.90;;;4.50;73.80;;;3.35;67.19;99770.19;5061022;28;20417;-82
2021/03/02 06:25:31;;;;;;;21.70;11.40;;;4.50;73.10;;;3.40;66.91;99754.03;5060877;28;20413;-82
2021/03/02 06:27:58;;;;;;;35.95;13.50;;;4.60;73.00;;;3.44;66.66;99764.09;5058819;28;20691;-83
2021/03/02 06:30:26;;;;;;;30.48;12.48;;;4.60;72.70;;;3.21;67.70;99762.84;5061196;28;20486;-82
2021/03/02 06:32:55;;;;;;;32.93;12.77;;;4.40;73.80;;;3.20;67.98;99771.66;5063047;28;20440;-82
2021/03/02 06:35:32;;;;;;;26.67;12.45;;;4.30;74.10;;;3.08;68.29;99775.44;5060682;28;20452;-81
2021/03/02 06:37:59;;;;;;;36.38;14.30;;;4.30;74.30;;;2.97;68.90;99771.19;5061298;28;20398;-82
2021/03/02 06:40:41;;;;;;;34.65;13.35;;;4.20;75.00;;;3.05;68.59;99779.16;5061121;28;20424;-83
2021/03/02 06:43:27;;;;;;;31.48;13.98;;;4.20;75.00;;;3.19;67.68;99777.84;5063106;28;20417;-83
2021/03/02 06:45:55;;;;;;;27.75;15.35;;;4.40;74.30;;;3.38;66.23;99782.97;5043343;28;20688;-83
2021/03/02 06:48:21;;;;;;;28.20;15.25;;;4.50;72.50;;;3.59;65.58;99787.16;5061488;28;20889;-82
2021/03/02 06:50:48;;;;;;;24.65;14.43;;;4.70;71.80;;;3.66;65.04;99794.25;5061265;28;20439;-81
2021/03/02 06:53:14;;;;;;;30.13;16.65;;;4.80;71.00;;;3.78;64.84;99802.72;5042560;28;20440;-80
2021/03/02 06:55:41;;;;;;;27.48;15.95;;;4.90;70.70;;;3.88;64.33;99801.69;5060812;28;20539;-82
2021/03/02 06:58:19;;;;;;;34.13;18.58;;;5.00;70.40;;;3.97;64.28;99809.63;5060277;28;20641;-81
2021/03/02 07:00:48;;;;;;;39.53;21.77;;;5.10;70.10;;;4.02;63.92;99800.34;5041508;28;20435;-81
2021/03/02 07:03:30;;;;;;;35.58;19.30;;;5.20;69.70;;;4.03;63.65;99802.00;5061883;28;20413;-81
2021/03/02 07:06:06;;;;;;;53.27;27.57;;;5.20;69.50;;;4.05;63.65;99807.91;5060320;28;20747;-81
2021/03/02 07:08:36;;;;;;;26.33;14.13;;;5.20;69.40;;;4.11;63.47;99801.25;5060502;28;20998;-81
2021/03/02 07:11:03;;;;;;;26.25;14.68;;;5.20;69.20;;;4.09;63.55;99805.81;5059671;28;20444;-82
2021/03/02 07:13:32;;;;;;;36.80;15.38;;;5.20;69.30;;;4.14;63.83;99800.91;5065125;28;20401;-82
2021/03/02 07:15:59;;;;;;;32.43;14.60;;;5.30;69.50;;;4.14;63.60;99807.00;5052578;28;20509;-81
2021/03/02 07:18:28;;;;;;;28.63;15.15;;;5.30;69.50;;;4.17;63.61;99811.94;5067150;28;20402;-81
2021/03/02 07:21:00;;;;;;;29.85;14.40;;;5.30;69.30;;;4.17;63.39;99811.13;5062927;28;20437;-82
2021/03/02 07:23:30;;;;;;;27.63;14.53;;;5.30;69.10;;;4.15;63.68;99816.50;5060737;28;20402;-82
2021/03/02 07:26:00;;;;;;;39.78;15.88;;;5.30;69.30;;;4.15;63.60;99820.91;5060568;28;20424;-82
2021/03/02 07:28:33;;;;;;;31.93;15.17;;;5.30;69.40;;;4.12;63.58;99823.84;5062146;28;20428;-82
2021/03/02 07:30:59;;;;;;;44.70;16.52;;;5.30;69.50;;;4.09;63.92;99824.97;5061731;28;20783;-82
2021/03/02 07:33:27;;;;;;;42.03;16.10;;;5.20;69.50;;;4.04;64.27;99821.16;5045154;28;20899;-82
2021/03/02 07:36:00;;;;;;;35.38;15.75;;;5.20;69.90;;;4.00;64.34;99825.88;5062440;28;20417;-81
2021/03/02 07:38:26;;;;;;;33.53;15.32;;;5.20;70.00;;;3.98;64.38;99827.84;5062339;28;20397;-81
2021/03/02 07:40:55;;;;;;;43.85;15.85;;;5.20;70.00;;;3.98;64.34;99827.00;5062478;28;20587;-81
2021/03/02 07:43:32;;;;;;;35.05;15.68;;;5.10;70.30;;;3.98;64.22;99832.25;5045235;28;20681;-81
2021/03/02 07:46:00;;;;;;;34.75;16.45;;;5.10;70.00;;;4.07;64.18;99826.09;5066375;28;20440;-80
2021/03/02 07:48:38;;;;;;;33.20;16.55;;;5.20;70.00;;;4.07;64.06;99836.56;5069304;28;20421;-83
2021/03/02 07:51:19;;;;;;;36.50;16.02;;;5.20;69.90;;;4.13;63.72;99828.13;5068136;28;20421;-83
2021/03/02 07:53:46;;;;;;;36.25;16.55;;;5.30;69.80;;;4.15;63.90;99829.59;5070562;28;20707;-81
2021/03/02 07:56:25;;;;;;;38.47;16.13;;;5.30;69.50;;;4.16;63.40;99830.44;5073012;28;20444;-82
2021/03/02 07:59:17;;;;;;;36.15;15.95;;;5.30;69.30;;;4.18;63.58;99826.69;5073699;28;20413;-82
2021/03/02 08:02:12;;;;;;;33.80;15.65;;;5.30;69.30;;;4.22;63.43;99832.44;5074087;28;20755;-81
2021/03/02 08:04:40;;;;;;;28.48;15.32;;;5.30;69.30;;;4.32;62.95;99827.13;5063229;28;20405;-80
2021/03/02 08:07:25;;;;;;;30.60;14.80;;;5.40;68.90;;;4.41;62.79;99828.84;5054485;28;20429;-81
2021/03/02 08:09:54;;;;;;;33.50;15.18;;;5.50;68.80;;;4.47;62.52;99834.31;5088015;28;20421;-81
2021/03/02 08:12:30;;;;;;;27.80;15.38;;;5.60;68.50;;;4.55;62.46;99834.38;5083594;28;20404;-83
2021/03/02 08:14:59;;;;;;;34.87;14.87;;;5.60;68.30;;;4.59;62.39;99833.09;5083047;28;20442;-80
2021/03/02 08:17:27;;;;;;;26.33;14.97;;;5.70;68.30;;;4.70;62.09;99832.03;5088557;28;20427;-82
2021/03/02 08:20:07;;;;;;;31.10;15.48;;;5.80;68.00;;;4.83;61.76;99835.06;5094560;28;20423;-83
2021/03/02 08:22:52;;;;;;;31.48;16.05;;;5.90;67.80;;;4.89;61.46;99837.06;5093923;28;20714;-81
2021/03/02 08:25:30;;;;;;;33.85;16.13;;;6.00;67.30;;;5.00;61.05;99836.00;5068965;28;20503;-80
2021/03/02 08:28:03;;;;;;;29.13;15.50;;;6.10;67.00;;;5.10;60.93;99833.25;5081328;28;20423;-81
2021/03/02 08:30:37;;;;;;;31.97;15.70;;;6.20;66.80;;;5.18;60.90;99835.94;5091337;28;20463;-81
2021/03/02 08:33:08;;;;;;;31.70;15.35;;;6.20;66.40;;;5.23;60.65;99837.09;5076973;28;20403;-81
2021/03/02 08:35:38;;;;;;;33.17;15.75;;;6.30;66.20;;;5.33;60.46;99837.81;5092469;28;20428;-82
2021/03/02 08:38:06;;;;;;;30.50;15.43;;;6.40;66.20;;;5.41;60.54;99845.72;5082704;28;20738;-82
2021/03/02 08:40:46;;;;;;;31.63;16.23;;;6.50;66.10;;;5.50;60.47;99843.94;5079734;28;20510;-82
2021/03/02 08:43:18;;;;;;;34.70;16.00;;;6.50;66.00;;;5.65;60.15;99846.78;5080323;28;20473;-81
2021/03/02 08:45:51;;;;;;;39.38;17.45;;;6.70;65.80;;;5.78;59.58;99845.38;5080838;28;20435;-80
2021/03/02 08:48:24;;;;;;;35.92;16.48;;;6.80;65.10;;;5.86;59.22;99851.63;5080367;28;20416;-80
2021/03/02 08:50:54;;;;;;;40.83;18.13;;;6.90;64.70;;;6.02;58.76;99843.78;5082350;28;20422;-80
2021/03/02 08:53:37;;;;;;;33.60;16.63;;;7.10;64.40;;;6.09;58.46;99839.56;5085469;28;20473;-81
2021/03/02 08:56:06;;;;;;;38.33;17.23;;;7.10;64.00;;;6.15;58.71;99838.91;5076450;28;20501;-82
2021/03/02 08:58:36;;;;;;;33.83;17.92;;;7.20;64.00;;;6.25;58.40;99833.47;5094665;28;20433;-81
2021/03/02 09:01:08;;;;;;;36.97;18.73;;;7.30;63.80;;;6.33;58.15;99839.56;5073929;28;20432;-84
2021/03/02 09:03:36;;;;;;;34.30;16.17;;;7.40;63.60;;;6.37;57.98;99834.81;5065232;28;20516;-82
2021/03/02 09:06:12;;;;;;;33.40;15.95;;;7.40;63.20;;;6.41;57.84;99834.31;5078844;28;20400;-83
2021/03/02 09:08:47;;;;;;;38.20;20.20;;;7.50;63.20;;;6.46;57.71;99831.22;5076702;28;20817;-82
2021/03/02 09:11:15;;;;;;;30.10;15.60;;;7.50;62.90;;;6.56;57.49;99832.66;5076887;28;20836;-82
2021/03/02 09:13:44;;;;;;;33.50;16.33;;;7.60;62.70;;;6.68;57.54;99837.59;5077409;28;20518;-83
2021/03/02 09:16:38;;;;;;;28.38;15.57;;;7.70;62.70;;;6.78;57.12;99835.59;5076748;28;20422;-83
2021/03/02 09:19:18;;;;;;;32.05;16.45;;;7.80;62.40;;;6.86;57.12;99835.59;5076241;28;20713;-82
2021/03/02 09:21:49;;;;;;;30.20;16.63;;;7.90;62.20;;;6.88;56.80;99837.09;5060353;28;20428;-83
2021/03/02 09:24:18;;;;;;;37.13;16.55;;;7.90;61.70;;;6.92;56.56;99835.75;5060295;28;20417;-82
2021/03/02 09:26:54;;;;;;;37.22;16.75;;;8.00;61.70;;;7.06;56.35;99833.44;5060343;28;20425;-83
2021/03/02 09:29:22;;;;;;;29.35;16.13;;;8.00;62.50;;;7.17;56.17;99833.88;5065346;28;20397;-84
2021/03/02 09:31:50;;;;;;;33.83;16.67;;;8.10;61.40;;;7.24;56.00;99836.66;5061135;28;20409;-84
2021/03/02 09:34:17;;;;;;;28.75;16.42;;;8.20;61.10;;;7.33;55.81;99835.66;5063145;28;20431;-82
2021/03/02 09:36:44;;;;;;;34.13;16.00;;;8.30;60.80;;;7.44;55.82;99843.19;5061476;28;20404;-83
2021/03/02 09:39:24;;;;;;;32.25;16.58;;;8.40;60.60;;;7.57;55.41;99845.28;5057851;28;20420;-82
2021/03/02 09:41:51;;;;;;;33.10;17.00;;;8.50;60.50;;;7.64;55.19;99840.97;5057586;28;20417;-83
2021/03/02 09:44:24;;;;;;;31.40;16.05;;;8.60;60.00;;;7.70;55.23;99840.28;5059948;28;20412;-83
2021/03/02 09:46:53;;;;;;;28.52;15.98;;;8.70;60.00;;;7.84;55.08;99841.34;5058656;28;20425;-82
2021/03/02 09:49:40;;;;;;;33.35;16.38;;;8.80;60.00;;;8.02;54.72;99837.47;5058420;28;20449;-84
2021/03/02 09:52:32;;;;;;;30.90;16.25;;;9.00;59.80;;;8.18;54.40;99838.34;5056869;28;20429;-82
2021/03/02 09:55:32;;;;;;;30.10;15.98;;;9.10;59.50;;;8.37;53.83;99841.38;5060359;28;20418;-84
2021/03/02 09:58:11;;;;;;;29.38;15.32;;;9.30;59.00;;;8.50;53.31;99840.75;5020917;28;20458;-83
2021/03/02 10:00:47;;;;;;;26.73;15.15;;;9.40;59.20;;;8.59;53.09;99838.88;5020080;28;20454;-83
2021/03/02 10:03:16;;;;;;;29.40;16.80;;;9.50;58.30;;;8.76;52.82;99840.38;5040599;28;20417;-83
2021/03/02 10:05:45;;;;;;;27.08;15.32;;;9.60;58.00;;;8.91;52.52;99836.78;5056749;28;20512;-84
2021/03/02 10:08:35;;;;;;;25.98;16.17;;;9.80;57.70;;;9.25;51.56;99836.22;5058784;28;20712;-84
2021/03/02 10:11:18;;;;;;;32.72;15.70;;;10.10;57.10;;;9.46;50.87;99834.69;5098826;28;20424;-84
2021/03/02 10:13:49;;;;;;;27.58;16.10;;;10.20;56.50;;;9.28;51.26;99835.88;5096959;28;20414;-84
2021/03/02 10:16:28;;;;;;;32.15;16.30;;;10.30;56.40;;;9.31;51.47;99837.34;5098027;28;20435;-84
2021/03/02 10:18:58;;;;;;;31.67;16.63;;;10.20;56.60;;;9.37;51.38;99831.31;5100068;28;20440;-85
2021/03/02 10:21:27;;;;;;;29.60;17.45;;;10.30;56.60;;;9.48;51.24;99825.56;5098996;28;20414;-83
2021/03/02 10:23:58;;;;;;;31.25;15.75;;;10.30;56.40;;;9.53;51.23;99828.50;5098209;28;20463;-83
2021/03/02 10:26:33;;;;;;;33.85;16.45;;;10.40;56.40;;;9.71;50.75;99839.47;5092962;28;20477;-83
2021/03/02 10:29:00;;;;;;;30.85;16.02;;;10.60;56.30;;;9.79;50.59;99830.63;5079136;28;20452;-83
2021/03/02 10:31:27;;;;;;;28.58;16.13;;;10.70;55.80;;;9.87;50.03;99840.28;5079906;28;20406;-83
2021/03/02 10:33:54;;;;;;;32.85;16.30;;;10.70;55.40;;;9.99;49.81;99841.44;5076043;28;20420;-83
2021/03/02 10:36:25;;;;;;;31.07;17.07;;;10.80;55.30;;;10.13;49.70;99837.94;5076187;28;20412;-83
2021/03/02 10:39:11;;;;;;;28.70;16.17;;;11.00;55.00;;;10.11;49.22;99834.63;5076922;28;20435;-83